Time;durP1;ratioP1;P1;durP2;ratioP2;P2;SDS_P1;SDS_P2;PMS_P1;PMS_P2;Temp;Humidity;BMP_temperature;BMP_pressure;BME280_temperature;BME280_humidity;BME280_pressure;Samples;Min_cycle;Max_cycle;Signal;HPM_P1;HPM_P2
2022/12/16 00:00:26;;;;;;;21.55;13.02;;;0.40;99.90;;;;;;5032091;28;20099;-57
2022/12/16 00:02:52;;;;;;;19.73;11.98;;;0.50;99.90;;;;;;5031889;28;20089;-56
2022/12/16 00:05:18;;;;;;;16.92;10.57;;;0.30;99.90;;;;;;5032196;28;20096;-56
2022/12/16 00:07:45;;;;;;;15.90;8.98;;;0.40;99.90;;;;;;5032226;28;20044;-57
2022/12/16 00:10:11;;;;;;;14.70;8.38;;;0.60;99.90;;;;;;5032027;28;20052;-56
2022/12/16 00:12:37;;;;;;;16.30;8.70;;;0.50;99.90;;;;;;5031835;28;20041;-57
2022/12/16 00:15:03;;;;;;;14.82;6.95;;;0.70;99.90;;;;;;5032000;28;20045;-56
2022/12/16 00:17:29;;;;;;;13.57;5.07;;;0.80;99.90;;;;;;5031730;28;20042;-56
2022/12/16 00:19:54;;;;;;;12.88;6.00;;;0.60;99.90;;;;;;5032083;28;20050;-57
2022/12/16 00:22:21;;;;;;;13.23;5.82;;;0.70;99.90;;;;;;5014091;28;20487;-57
2022/12/16 00:24:47;;;;;;;10.30;4.82;;;0.70;99.90;;;;;;5031807;28;20041;-56
2022/12/16 00:27:12;;;;;;;10.73;4.65;;;0.70;99.90;;;;;;5031326;28;20056;-57
2022/12/16 00:29:38;;;;;;;10.60;4.53;;;0.50;99.90;;;;;;5031885;28;20045;-55
2022/12/16 00:32:05;;;;;;;7.95;3.67;;;0.50;99.90;;;;;;5031336;28;20038;-56
2022/12/16 00:34:32;;;;;;;11.57;3.95;;;0.40;99.90;;;;;;5031908;28;20044;-53
2022/12/16 00:36:57;;;;;;;10.15;4.60;;;0.40;99.90;;;;;;5031570;28;20051;-57
2022/12/16 00:39:23;;;;;;;9.77;3.53;;;0.50;99.90;;;;;;5031722;28;20046;-55
2022/12/16 00:41:49;;;;;;;8.38;3.60;;;0.40;99.90;;;;;;5033255;28;20049;-56
2022/12/16 00:44:15;;;;;;;9.30;2.92;;;0.50;99.90;;;;;;5035358;28;20128;-53
2022/12/16 00:46:41;;;;;;;10.68;3.42;;;0.50;99.90;;;;;;5035083;28;20553;-57
2022/12/16 00:49:07;;;;;;;9.90;3.83;;;0.50;99.90;;;;;;5035504;28;20055;-57
2022/12/16 00:51:33;;;;;;;9.38;4.28;;;0.40;99.90;;;;;;5035576;28;20386;-55
2022/12/16 00:53:58;;;;;;;8.50;3.47;;;0.50;99.90;;;;;;5017772;28;20042;-54
2022/12/16 00:56:24;;;;;;;10.10;3.63;;;0.60;99.90;;;;;;5047327;28;20037;-56
2022/12/16 00:58:50;;;;;;;9.23;3.53;;;0.50;99.90;;;;;;5037423;28;20080;-58
2022/12/16 01:01:16;;;;;;;7.45;3.15;;;0.70;99.90;;;;;;5055067;28;20052;-55
2022/12/16 01:03:41;;;;;;;7.38;3.40;;;0.70;99.90;;;;;;5054948;28;20086;-56
2022/12/16 01:06:10;;;;;;;8.15;3.38;;;0.70;99.90;;;;;;5054987;28;20466;-56
2022/12/16 01:08:35;;;;;;;12.00;4.47;;;0.70;99.90;;;;;;5055163;28;20045;-54
2022/12/16 01:11:01;;;;;;;8.15;3.58;;;0.70;99.90;;;;;;5037161;28;20596;-57
2022/12/16 01:13:27;;;;;;;9.35;3.25;;;0.80;99.90;;;;;;5054873;28;20041;-57
2022/12/16 01:15:52;;;;;;;11.05;4.10;;;0.80;99.90;;;;;;5054705;28;20039;-54
2022/12/16 01:18:19;;;;;;;6.80;3.28;;;0.80;99.90;;;;;;5054602;28;20049;-55
2022/12/16 01:20:44;;;;;;;8.00;3.15;;;0.90;99.90;;;;;;5054780;28;20047;-57
2022/12/16 01:23:10;;;;;;;12.15;4.55;;;0.80;99.90;;;;;;5054753;28;20123;-57
2022/12/16 01:25:35;;;;;;;8.77;3.38;;;0.80;99.90;;;;;;5054873;28;20045;-57
2022/12/16 01:28:01;;;;;;;11.52;3.70;;;0.90;99.90;;;;;;5054737;28;20041;-57
2022/12/16 01:30:27;;;;;;;8.18;3.45;;;0.90;99.90;;;;;;5054518;28;20044;-57
2022/12/16 01:32:53;;;;;;;7.90;3.45;;;0.90;99.90;;;;;;5054288;28;20127;-57
2022/12/16 01:35:19;;;;;;;8.90;3.35;;;1.00;99.90;;;;;;5054663;28;20127;-57
2022/12/16 01:37:44;;;;;;;11.15;3.75;;;1.00;99.90;;;;;;5054498;28;20037;-57
2022/12/16 01:40:19;;;;;;;9.35;3.55;;;1.00;99.90;;;;;;5054553;28;20025;-57
2022/12/16 01:42:45;;;;;;;10.35;3.60;;;1.00;99.90;;;;;;5054456;28;20037;-56
2022/12/16 01:45:32;;;;;;;9.38;4.10;;;1.10;99.90;;;;;;5054214;28;20063;-57
2022/12/16 01:48:05;;;;;;;8.98;3.53;;;1.20;99.90;;;;;;5054212;28;20053;-57
2022/12/16 01:50:31;;;;;;;7.50;3.90;;;1.00;99.90;;;;;;5054125;28;20485;-56
2022/12/16 01:53:01;;;;;;;9.95;3.80;;;1.10;99.90;;;;;;5054040;28;20087;-56
2022/12/16 01:55:36;;;;;;;19.38;4.65;;;1.20;99.90;;;;;;5050176;28;20073;-56
2022/12/16 01:58:13;;;;;;;9.45;3.42;;;1.10;99.90;;;;;;5033995;28;20041;-56
2022/12/16 02:00:42;;;;;;;9.15;3.42;;;1.10;99.90;;;;;;5034149;28;20072;-57
2022/12/16 02:03:09;;;;;;;10.00;4.03;;;1.20;99.90;;;;;;5034336;28;20393;-56
2022/12/16 02:05:39;;;;;;;8.75;3.45;;;1.20;99.90;;;;;;5033956;28;20029;-55
2022/12/16 02:08:04;;;;;;;9.48;4.70;;;1.20;99.90;;;;;;5034018;28;20136;-54
2022/12/16 02:10:43;;;;;;;13.73;4.55;;;1.20;99.90;;;;;;5034207;28;20536;-57
2022/12/16 02:13:30;;;;;;;8.45;4.28;;;1.20;99.90;;;;;;5033748;28;20045;-56
2022/12/16 02:16:15;;;;;;;9.32;3.97;;;1.30;99.90;;;;;;5033884;28;20052;-56
2022/12/16 02:19:00;;;;;;;9.82;4.78;;;1.40;99.90;;;;;;5033891;28;20049;-56
2022/12/16 02:21:56;;;;;;;8.18;4.00;;;1.40;99.90;;;;;;5033595;28;20081;-57
2022/12/16 02:25:01;;;;;;;9.57;4.85;;;1.40;99.90;;;;;;5033198;28;20049;-57
2022/12/16 02:27:44;;;;;;;12.02;4.45;;;1.40;99.90;;;;;;5032497;28;20061;-53
2022/12/16 02:30:24;;;;;;;12.35;4.50;;;1.40;99.90;;;;;;5033372;28;20037;-55
2022/12/16 02:33:01;;;;;;;11.23;4.10;;;1.40;99.90;;;;;;5033712;28;20099;-55
2022/12/16 02:35:51;;;;;;;10.25;4.53;;;1.50;99.90;;;;;;5033576;28;20064;-57
2022/12/16 02:38:23;;;;;;;10.55;4.72;;;1.40;99.90;;;;;;5033740;28;20387;-56
2022/12/16 02:41:02;;;;;;;;;;;1.50;99.90;;;;;;5033537;28;20096;-56
2022/12/16 02:43:55;;;;;;;8.25;3.50;;;1.50;99.90;;;;;;5033427;28;19939;-54
2022/12/16 02:46:26;;;;;;;9.32;3.90;;;1.50;99.90;;;;;;5033092;28;20056;-57
2022/12/16 02:48:53;;;;;;;12.90;3.97;;;1.50;99.90;;;;;;5033167;28;20124;-57
2022/12/16 02:51:21;;;;;;;8.38;4.25;;;1.50;99.90;;;;;;5033025;28;20561;-56
2022/12/16 02:53:49;;;;;;;9.10;4.30;;;1.50;99.90;;;;;;5032979;28;20112;-57
2022/12/16 02:56:17;;;;;;;9.25;3.90;;;1.50;99.90;;;;;;5043529;28;20485;-55
2022/12/16 02:59:03;;;;;;;9.90;3.83;;;1.40;99.90;;;;;;5053112;28;20041;-56
2022/12/16 03:01:55;;;;;;;9.27;4.32;;;1.40;99.90;;;;;;5051742;28;20382;-57
2022/12/16 03:04:35;;;;;;;7.93;3.58;;;1.40;99.90;;;;;;5052046;28;20041;-56
2022/12/16 03:07:03;;;;;;;8.70;3.60;;;1.50;99.90;;;;;;5035166;28;20123;-57
2022/12/16 03:09:33;;;;;;;9.77;3.80;;;1.50;99.90;;;;;;5052500;28;20186;-56
2022/12/16 03:12:02;;;;;;;11.63;4.60;;;1.40;99.90;;;;;;5034577;28;20124;-57
2022/12/16 03:14:30;;;;;;;12.52;4.28;;;1.50;99.90;;;;;;5052507;28;20138;-57
2022/12/16 03:16:57;;;;;;;9.70;4.07;;;1.40;99.90;;;;;;5052570;28;20045;-56
2022/12/16 03:19:24;;;;;;;11.10;4.63;;;1.40;99.90;;;;;;5052705;28;20049;-56
2022/12/16 03:22:01;;;;;;;13.18;4.85;;;1.40;99.90;;;;;;5052471;28;20397;-56
2022/12/16 03:24:28;;;;;;;9.25;4.70;;;1.50;99.90;;;;;;5052247;28;20497;-57
2022/12/16 03:27:17;;;;;;;9.10;4.57;;;1.50;99.90;;;;;;5052567;28;20044;-55
2022/12/16 03:30:01;;;;;;;9.75;4.28;;;1.50;99.90;;;;;;5052493;28;20041;-57
2022/12/16 03:32:38;;;;;;;10.18;4.38;;;1.50;99.90;;;;;;5052591;28;20040;-55
2022/12/16 03:35:23;;;;;;;9.25;5.35;;;1.50;99.90;;;;;;5034132;28;20102;-55
2022/12/16 03:37:54;;;;;;;10.90;4.93;;;1.50;99.90;;;;;;5051555;28;20057;-56
2022/12/16 03:40:21;;;;;;;13.40;6.55;;;1.60;99.90;;;;;;5052166;28;20049;-56
2022/12/16 03:42:48;;;;;;;17.02;8.45;;;1.60;99.90;;;;;;5052273;28;20397;-57
2022/12/16 03:45:18;;;;;;;15.85;8.40;;;1.60;99.90;;;;;;5051914;28;20128;-55
2022/12/16 03:47:49;;;;;;;18.15;9.48;;;1.60;99.90;;;;;;5051924;28;20055;-57
2022/12/16 03:50:18;;;;;;;22.63;12.43;;;1.60;99.90;;;;;;5034228;28;20055;-56
2022/12/16 03:52:44;;;;;;;24.77;14.07;;;1.50;99.90;;;;;;5052122;28;20037;-57
2022/12/16 03:55:09;;;;;;;24.80;14.18;;;1.60;99.90;;;;;;5052025;28;20131;-58
2022/12/16 03:57:35;;;;;;;27.40;15.82;;;1.50;99.90;;;;;;5051931;28;20106;-58
2022/12/16 04:00:00;;;;;;;27.10;16.67;;;1.60;99.90;;;;;;5051911;28;20481;-56
2022/12/16 04:02:26;;;;;;;32.65;17.90;;;1.60;99.90;;;;;;5051910;28;20420;-57
2022/12/16 04:04:52;;;;;;;32.03;18.50;;;1.50;99.90;;;;;;5052133;28;20041;-54
2022/12/16 04:07:20;;;;;;;31.08;19.00;;;1.50;99.90;;;;;;5052015;28;20485;-56
2022/12/16 04:09:47;;;;;;;37.22;20.65;;;1.50;99.90;;;;;;5051894;28;20041;-57
2022/12/16 04:26:04;;;;;;;41.13;22.08;;;1.20;99.90;;;;;;5055758;28;20083;-55
2022/12/16 04:28:30;;;;;;;45.13;22.92;;;1.10;99.90;;;;;;5055541;28;20041;-57
2022/12/16 04:30:56;;;;;;;41.63;21.27;;;1.40;99.90;;;;;;5055299;28;20036;-58
